sensor_id;sensor_type;location;lat;lon;timestamp;temperature;humidity
52034;DHT22;38045;52.988;6.536;2023-04-25T00:00:04;6.60;99.90
52034;DHT22;38045;52.988;6.536;2023-04-25T00:02:33;6.60;99.90
52034;DHT22;38045;52.988;6.536;2023-04-25T00:05:00;6.50;99.90
52034;DHT22;38045;52.988;6.536;2023-04-25T00:07:27;6.50;99.90
52034;DHT22;38045;52.988;6.536;2023-04-25T00:09:52;6.50;99.90
52034;DHT22;38045;52.988;6.536;2023-04-25T00:12:18;6.50;99.90
52034;DHT22;38045;52.988;6.536;2023-04-25T00:14:44;6.50;99.90
52034;DHT22;38045;52.988;6.536;2023-04-25T00:17:10;6.50;99.90
52034;DHT22;38045;52.988;6.536;2023-04-25T00:19:36;6.50;99.90
52034;DHT22;38045;52.988;6.536;2023-04-25T00:22:03;6.40;99.90
52034;DHT22;38045;52.988;6.536;2023-04-25T00:24:29;6.50;99.90
52034;DHT22;38045;52.988;6.536;2023-04-25T00:26:55;6.40;99.90
52034;DHT22;38045;52.988;6.536;2023-04-25T00:29:20;6.40;99.90
52034;DHT22;38045;52.988;6.536;2023-04-25T00:31:46;6.40;99.90
52034;DHT22;38045;52.988;6.536;2023-04-25T00:34:11;6.50;99.90
52034;DHT22;38045;52.988;6.536;2023-04-25T00:36:37;6.40;99.90
52034;DHT22;38045;52.988;6.536;2023-04-25T00:39:03;6.30;99.90
52034;DHT22;38045;52.988;6.536;2023-04-25T00:41:30;6.30;99.90
52034;DHT22;38045;52.988;6.536;2023-04-25T00:43:56;6.20;99.90
52034;DHT22;38045;52.988;6.536;2023-04-25T00:46:23;6.20;99.90
52034;DHT22;38045;52.988;6.536;2023-04-25T00:48:48;6.20;99.90
52034;DHT22;38045;52.988;6.536;2023-04-25T00:51:19;6.10;99.90
52034;DHT22;38045;52.988;6.536;2023-04-25T00:53:45;6.10;99.90
52034;DHT22;38045;52.988;6.536;2023-04-25T00:56:11;6.00;99.90
52034;DHT22;38045;52.988;6.536;2023-04-25T00:58:37;6.00;99.90
52034;DHT22;38045;52.988;6.536;2023-04-25T01:01:03;6.10;99.90
52034;DHT22;38045;52.988;6.536;2023-04-25T01:03:31;6.10;99.90
52034;DHT22;38045;52.988;6.536;2023-04-25T01:05:58;6.00;99.90
52034;DHT22;38045;52.988;6.536;2023-04-25T01:08:24;6.00;99.90
52034;DHT22;38045;52.988;6.536;2023-04-25T01:10:50;6.00;99.90
52034;DHT22;38045;52.988;6.536;2023-04-25T01:13:16;6.00;99.90
52034;DHT22;38045;52.988;6.536;2023-04-25T01:15:42;5.90;99.90
52034;DHT22;38045;52.988;6.536;2023-04-25T01:18:07;5.80;99.90
52034;DHT22;38045;52.988;6.536;2023-04-25T01:20:33;5.80;99.90
52034;DHT22;38045;52.988;6.536;2023-04-25T01:23:00;5.80;99.90
52034;DHT22;38045;52.988;6.536;2023-04-25T01:25:27;5.70;99.90
52034;DHT22;38045;52.988;6.536;2023-04-25T01:27:53;5.60;99.90
52034;DHT22;38045;52.988;6.536;2023-04-25T01:30:19;5.60;99.90
52034;DHT22;38045;52.988;6.536;2023-04-25T01:32:44;5.60;99.90
52034;DHT22;38045;52.988;6.536;2023-04-25T01:35:11;5.60;99.90
52034;DHT22;38045;52.988;6.536;2023-04-25T01:37:38;5.60;99.90
52034;DHT22;38045;52.988;6.536;2023-04-25T01:40:04;5.50;99.90
52034;DHT22;38045;52.988;6.536;2023-04-25T01:42:34;5.50;99.90
52034;DHT22;38045;52.988;6.536;2023-04-25T01:45:01;5.50;99.90
52034;DHT22;38045;52.988;6.536;2023-04-25T01:47:27;5.50;99.90
52034;DHT22;38045;52.988;6.536;2023-04-25T01:49:53;5.50;99.90
52034;DHT22;38045;52.988;6.536;2023-04-25T01:52:19;5.50;99.90
52034;DHT22;38045;52.988;6.536;2023-04-25T01:54:45;5.50;99.90
52034;DHT22;38045;52.988;6.536;2023-04-25T01:57:11;5.50;99.90
52034;DHT22;38045;52.988;6.536;2023-04-25T01:59:37;5.50;99.90
52034;DHT22;38045;52.988;6.536;2023-04-25T02:02:03;5.40;99.90
52034;DHT22;38045;52.988;6.536;2023-04-25T02:04:32;5.40;99.90
52034;DHT22;38045;52.988;6.536;2023-04-25T02:06:58;5.40;99.90
52034;DHT22;38045;52.988;6.536;2023-04-25T02:09:23;5.40;99.90
52034;DHT22;38045;52.988;6.536;2023-04-25T02:11:49;5.40;99.90
52034;DHT22;38045;52.988;6.536;2023-04-25T02:14:15;5.40;99.90
52034;DHT22;38045;52.988;6.536;2023-04-25T02:16:41;5.40;99.90
52034;DHT22;38045;52.988;6.536;2023-04-25T02:19:09;5.40;99.90
52034;DHT22;38045;52.988;6.536;2023-04-25T02:21:35;5.40;99.90
52034;DHT22;38045;52.988;6.536;2023-04-25T02:24:01;5.40;99.90
52034;DHT22;38045;52.988;6.536;2023-04-25T02:26:27;5.40;99.90
52034;DHT22;38045;52.988;6.536;2023-04-25T02:28:52;5.40;99.90
52034;DHT22;38045;52.988;6.536;2023-04-25T02:31:18;5.40;99.90
52034;DHT22;38045;52.988;6.536;2023-04-25T02:33:44;5.40;99.90
52034;DHT22;38045;52.988;6.536;2023-04-25T02:36:09;5.40;99.90
52034;DHT22;38045;52.988;6.536;2023-04-25T02:38:35;5.40;99.90
52034;DHT22;38045;52.988;6.536;2023-04-25T02:41:01;5.40;99.90
52034;DHT22;38045;52.988;6.536;2023-04-25T02:43:26;5.40;99.90
52034;DHT22;38045;52.988;6.536;2023-04-25T02:45:52;5.40;99.90
52034;DHT22;38045;52.988;6.536;2023-04-25T02:48:17;5.40;99.90
52034;DHT22;38045;52.988;6.536;2023-04-25T02:50:43;5.40;99.90
52034;DHT22;38045;52.988;6.536;2023-04-25T02:53:09;5.50;99.90
52034;DHT22;38045;52.988;6.536;2023-04-25T02:55:35;5.40;99.90
52034;DHT22;38045;52.988;6.536;2023-04-25T02:58:00;5.50;99.90
52034;DHT22;38045;52.988;6.536;2023-04-25T03:00:26;5.40;99.90
52034;DHT22;38045;52.988;6.536;2023-04-25T03:02:51;5.50;99.90
52034;DHT22;38045;52.988;6.536;2023-04-25T03:05:17;5.40;99.90
52034;DHT22;38045;52.988;6.536;2023-04-25T03:07:43;5.50;99.90
52034;DHT22;38045;52.988;6.536;2023-04-25T03:10:10;5.50;99.90
52034;DHT22;38045;52.988;6.536;2023-04-25T03:12:36;5.60;99.90
52034;DHT22;38045;52.988;6.536;2023-04-25T03:15:02;5.60;99.90
52034;DHT22;38045;52.988;6.536;2023-04-25T03:17:28;5.50;99.90
52034;DHT22;38045;52.988;6.536;2023-04-25T03:19:54;5.60;99.90
52034;DHT22;38045;52.988;6.536;2023-04-25T03:22:19;5.60;99.90
52034;DHT22;38045;52.988;6.536;2023-04-25T03:24:45;5.60;99.90
52034;DHT22;38045;52.988;6.536;2023-04-25T03:27:11;5.60;99.90
52034;DHT22;38045;52.988;6.536;2023-04-25T03:29:36;5.60;99.90
52034;DHT22;38045;52.988;6.536;2023-04-25T03:32:02;5.50;99.90
52034;DHT22;38045;52.988;6.536;2023-04-25T03:34:27;5.50;99.90
52034;DHT22;38045;52.988;6.536;2023-04-25T03:36:53;5.50;99.90
52034;DHT22;38045;52.988;6.536;2023-04-25T03:39:19;5.50;99.90
52034;DHT22;38045;52.988;6.536;2023-04-25T03:41:44;5.40;99.90
52034;DHT22;38045;52.988;6.536;2023-04-25T03:44:10;5.30;99.90
52034;DHT22;38045;52.988;6.536;2023-04-25T03:46:35;5.30;99.90
52034;DHT22;38045;52.988;6.536;2023-04-25T03:49:01;5.20;99.90
52034;DHT22;38045;52.988;6.536;2023-04-25T03:51:27;5.10;99.90
52034;DHT22;38045;52.988;6.536;2023-04-25T03:53:52;5.00;99.90
52034;DHT22;38045;52.988;6.536;2023-04-25T03:56:18;5.00;99.90
52034;DHT22;38045;52.988;6.536;2023-04-25T03:58:44;4.90;99.90
52034;DHT22;38045;52.988;6.536;2023-04-25T04:01:10;4.90;99.90
52034;DHT22;38045;52.988;6.536;2023-04-25T04:03:36;4.90;99.90
52034;DHT22;38045;52.988;6.536;2023-04-25T04:06:04;4.90;99.90
52034;DHT22;38045;52.988;6.536;2023-04-25T04:08:31;4.80;99.90
52034;DHT22;38045;52.988;6.536;2023-04-25T04:10:57;4.90;99.90
52034;DHT22;38045;52.988;6.536;2023-04-25T04:13:23;4.80;99.90
52034;DHT22;38045;52.988;6.536;2023-04-25T04:15:48;4.80;99.90
52034;DHT22;38045;52.988;6.536;2023-04-25T04:18:14;4.80;99.90
52034;DHT22;38045;52.988;6.536;2023-04-25T04:20:39;4.80;99.90
52034;DHT22;38045;52.988;6.536;2023-04-25T04:23:05;4.80;99.90
52034;DHT22;38045;52.988;6.536;2023-04-25T04:25:31;4.80;99.90
52034;DHT22;38045;52.988;6.536;2023-04-25T04:27:56;4.80;99.90
52034;DHT22;38045;52.988;6.536;2023-04-25T04:30:23;4.70;99.90
52034;DHT22;38045;52.988;6.536;2023-04-25T04:32:55;4.80;99.90
52034;DHT22;38045;52.988;6.536;2023-04-25T04:35:22;4.70;99.90
52034;DHT22;38045;52.988;6.536;2023-04-25T04:37:47;4.80;99.90
52034;DHT22;38045;52.988;6.536;2023-04-25T04:40:14;4.80;99.90
52034;DHT22;38045;52.988;6.536;2023-04-25T04:42:41;4.80;99.90
52034;DHT22;38045;52.988;6.536;2023-04-25T04:45:08;4.80;99.90
52034;DHT22;38045;52.988;6.536;2023-04-25T04:47:34;4.80;99.90
52034;DHT22;38045;52.988;6.536;2023-04-25T04:50:02;4.80;99.90
52034;DHT22;38045;52.988;6.536;2023-04-25T04:52:28;4.80;99.90
52034;DHT22;38045;52.988;6.536;2023-04-25T04:54:54;4.80;99.90
52034;DHT22;38045;52.988;6.536;2023-04-25T04:57:19;4.80;99.90
52034;DHT22;38045;52.988;6.536;2023-04-25T04:59:45;4.80;99.90
52034;DHT22;38045;52.988;6.536;2023-04-25T05:02:11;4.90;99.90
52034;DHT22;38045;52.988;6.536;2023-04-25T05:04:36;4.90;99.90
52034;DHT22;38045;52.988;6.536;2023-04-25T05:07:02;4.90;99.90
52034;DHT22;38045;52.988;6.536;2023-04-25T05:09:28;4.90;99.90
52034;DHT22;38045;52.988;6.536;2023-04-25T05:11:53;4.90;99.90
52034;DHT22;38045;52.988;6.536;2023-04-25T05:14:19;4.90;99.90
52034;DHT22;38045;52.988;6.536;2023-04-25T05:16:44;4.90;99.90
52034;DHT22;38045;52.988;6.536;2023-04-25T05:19:10;4.90;99.90
52034;DHT22;38045;52.988;6.536;2023-04-25T05:21:35;5.00;99.90
52034;DHT22;38045;52.988;6.536;2023-04-25T05:24:01;5.00;99.90
52034;DHT22;38045;52.988;6.536;2023-04-25T05:26:27;5.10;99.90
52034;DHT22;38045;52.988;6.536;2023-04-25T05:28:57;5.20;99.90
52034;DHT22;38045;52.988;6.536;2023-04-25T05:31:22;5.30;99.90
52034;DHT22;38045;52.988;6.536;2023-04-25T05:33:48;5.30;99.90
52034;DHT22;38045;52.988;6.536;2023-04-25T05:36:14;5.40;99.90
52034;DHT22;38045;52.988;6.536;2023-04-25T05:38:39;5.40;99.90
52034;DHT22;38045;52.988;6.536;2023-04-25T05:41:05;5.50;99.90
52034;DHT22;38045;52.988;6.536;2023-04-25T05:43:30;5.50;99.90
52034;DHT22;38045;52.988;6.536;2023-04-25T05:45:56;5.50;99.90
52034;DHT22;38045;52.988;6.536;2023-04-25T05:48:22;5.50;99.90
52034;DHT22;38045;52.988;6.536;2023-04-25T05:50:47;5.50;99.90
52034;DHT22;38045;52.988;6.536;2023-04-25T05:53:13;5.60;99.90
52034;DHT22;38045;52.988;6.536;2023-04-25T05:55:38;5.60;99.90
52034;DHT22;38045;52.988;6.536;2023-04-25T05:58:05;5.70;99.90
52034;DHT22;38045;52.988;6.536;2023-04-25T06:00:32;5.70;99.90
52034;DHT22;38045;52.988;6.536;2023-04-25T06:02:58;5.80;99.90
52034;DHT22;38045;52.988;6.536;2023-04-25T06:05:23;5.90;99.90
52034;DHT22;38045;52.988;6.536;2023-04-25T06:07:49;6.00;99.90
52034;DHT22;38045;52.988;6.536;2023-04-25T06:10:14;6.20;99.90
52034;DHT22;38045;52.988;6.536;2023-04-25T06:12:40;6.30;99.90
52034;DHT22;38045;52.988;6.536;2023-04-25T06:15:06;6.40;99.90
52034;DHT22;38045;52.988;6.536;2023-04-25T06:17:33;6.50;99.90
52034;DHT22;38045;52.988;6.536;2023-04-25T06:19:58;6.60;99.90
52034;DHT22;38045;52.988;6.536;2023-04-25T06:22:24;6.70;99.90
52034;DHT22;38045;52.988;6.536;2023-04-25T06:24:49;6.70;99.90
52034;DHT22;38045;52.988;6.536;2023-04-25T06:27:15;6.70;99.90
52034;DHT22;38045;52.988;6.536;2023-04-25T06:29:40;6.70;99.90
52034;DHT22;38045;52.988;6.536;2023-04-25T06:32:06;6.80;99.90
52034;DHT22;38045;52.988;6.536;2023-04-25T06:34:32;6.90;99.90
52034;DHT22;38045;52.988;6.536;2023-04-25T06:36:57;7.00;99.90
52034;DHT22;38045;52.988;6.536;2023-04-25T06:39:23;7.00;99.90
52034;DHT22;38045;52.988;6.536;2023-04-25T06:41:50;7.00;99.90
52034;DHT22;38045;52.988;6.536;2023-04-25T06:44:15;7.00;99.90
52034;DHT22;38045;52.988;6.536;2023-04-25T06:46:41;6.80;99.90
52034;DHT22;38045;52.988;6.536;2023-04-25T06:49:06;6.80;99.90
52034;DHT22;38045;52.988;6.536;2023-04-25T06:51:32;6.70;99.90
52034;DHT22;38045;52.988;6.536;2023-04-25T06:53:58;6.70;99.90
52034;DHT22;38045;52.988;6.536;2023-04-25T06:56:24;6.70;99.90
52034;DHT22;38045;52.988;6.536;2023-04-25T06:58:49;6.70;99.90
52034;DHT22;38045;52.988;6.536;2023-04-25T07:01:15;6.80;99.90
52034;DHT22;38045;52.988;6.536;2023-04-25T07:03:41;6.90;99.90
52034;DHT22;38045;52.988;6.536;2023-04-25T07:06:07;7.00;99.90
52034;DHT22;38045;52.988;6.536;2023-04-25T07:08:32;7.10;99.90
52034;DHT22;38045;52.988;6.536;2023-04-25T07:10:58;7.20;99.90
52034;DHT22;38045;52.988;6.536;2023-04-25T07:13:23;7.20;99.90
52034;DHT22;38045;52.988;6.536;2023-04-25T07:15:49;7.20;99.90
52034;DHT22;38045;52.988;6.536;2023-04-25T07:18:14;7.20;99.90
52034;DHT22;38045;52.988;6.536;2023-04-25T07:20:41;7.20;99.90
52034;DHT22;38045;52.988;6.536;2023-04-25T07:23:07;7.20;99.90
52034;DHT22;38045;52.988;6.536;2023-04-25T07:25:32;7.30;99.90
52034;DHT22;38045;52.988;6.536;2023-04-25T07:27:58;7.30;99.90
52034;DHT22;38045;52.988;6.536;2023-04-25T07:30:23;7.30;99.90
52034;DHT22;38045;52.988;6.536;2023-04-25T07:32:50;7.30;99.90
52034;DHT22;38045;52.988;6.536;2023-04-25T07:35:16;7.20;99.90
52034;DHT22;38045;52.988;6.536;2023-04-25T07:37:42;7.20;99.90
52034;DHT22;38045;52.988;6.536;2023-04-25T07:40:08;7.40;99.90
52034;DHT22;38045;52.988;6.536;2023-04-25T07:42:35;7.50;99.90
52034;DHT22;38045;52.988;6.536;2023-04-25T07:45:01;7.60;99.90
52034;DHT22;38045;52.988;6.536;2023-04-25T07:47:26;7.70;99.90
52034;DHT22;38045;52.988;6.536;2023-04-25T07:49:52;7.80;99.90
52034;DHT22;38045;52.988;6.536;2023-04-25T07:52:17;8.00;99.90
52034;DHT22;38045;52.988;6.536;2023-04-25T07:54:43;8.00;99.90
52034;DHT22;38045;52.988;6.536;2023-04-25T07:57:09;7.90;99.90
52034;DHT22;38045;52.988;6.536;2023-04-25T07:59:34;7.70;99.90
52034;DHT22;38045;52.988;6.536;2023-04-25T08:02:00;7.40;99.90
52034;DHT22;38045;52.988;6.536;2023-04-25T08:04:26;7.00;99.90
52034;DHT22;38045;52.988;6.536;2023-04-25T08:06:52;6.80;99.90
52034;DHT22;38045;52.988;6.536;2023-04-25T08:09:19;6.70;99.90
52034;DHT22;38045;52.988;6.536;2023-04-25T08:11:45;6.60;99.90
52034;DHT22;38045;52.988;6.536;2023-04-25T08:14:12;6.60;99.90
52034;DHT22;38045;52.988;6.536;2023-04-25T08:16:37;6.70;99.90
52034;DHT22;38045;52.988;6.536;2023-04-25T08:19:03;6.70;99.90
52034;DHT22;38045;52.988;6.536;2023-04-25T08:21:28;6.80;99.90
52034;DHT22;38045;52.988;6.536;2023-04-25T08:23:54;6.90;99.90
52034;DHT22;38045;52.988;6.536;2023-04-25T08:26:20;7.10;99.90
52034;DHT22;38045;52.988;6.536;2023-04-25T08:28:46;7.40;99.90
52034;DHT22;38045;52.988;6.536;2023-04-25T08:31:12;7.60;99.90
52034;DHT22;38045;52.988;6.536;2023-04-25T08:33:37;7.80;99.90
52034;DHT22;38045;52.988;6.536;2023-04-25T08:36:03;7.90;99.90
52034;DHT22;38045;52.988;6.536;2023-04-25T08:38:29;8.10;99.90
52034;DHT22;38045;52.988;6.536;2023-04-25T08:40:56;8.10;99.90
52034;DHT22;38045;52.988;6.536;2023-04-25T08:43:25;8.20;99.90
52034;DHT22;38045;52.988;6.536;2023-04-25T08:45:53;8.40;99.90
52034;DHT22;38045;52.988;6.536;2023-04-25T08:48:19;8.50;99.90
52034;DHT22;38045;52.988;6.536;2023-04-25T08:50:53;8.50;99.90
52034;DHT22;38045;52.988;6.536;2023-04-25T08:53:26;8.60;99.90
52034;DHT22;38045;52.988;6.536;2023-04-25T08:55:56;8.30;99.90
52034;DHT22;38045;52.988;6.536;2023-04-25T08:58:23;7.80;99.90
52034;DHT22;38045;52.988;6.536;2023-04-25T09:00:50;7.50;99.90
52034;DHT22;38045;52.988;6.536;2023-04-25T09:03:19;7.30;99.90
52034;DHT22;38045;52.988;6.536;2023-04-25T09:05:44;7.20;99.90
52034;DHT22;38045;52.988;6.536;2023-04-25T09:08:10;7.00;99.90
52034;DHT22;38045;52.988;6.536;2023-04-25T09:10:37;6.90;99.90
52034;DHT22;38045;52.988;6.536;2023-04-25T09:13:10;6.70;99.90
52034;DHT22;38045;52.988;6.536;2023-04-25T09:16:09;6.60;99.90
52034;DHT22;38045;52.988;6.536;2023-04-25T09:18:35;6.60;99.90
52034;DHT22;38045;52.988;6.536;2023-04-25T09:21:07;6.70;99.90
52034;DHT22;38045;52.988;6.536;2023-04-25T09:23:41;6.80;99.90
52034;DHT22;38045;52.988;6.536;2023-04-25T09:26:07;6.90;99.90
52034;DHT22;38045;52.988;6.536;2023-04-25T09:28:34;7.00;99.90
52034;DHT22;38045;52.988;6.536;2023-04-25T09:31:01;7.10;99.90
52034;DHT22;38045;52.988;6.536;2023-04-25T09:33:29;7.30;99.90
52034;DHT22;38045;52.988;6.536;2023-04-25T09:36:02;7.40;99.90
52034;DHT22;38045;52.988;6.536;2023-04-25T09:38:39;7.60;99.90
52034;DHT22;38045;52.988;6.536;2023-04-25T09:41:05;7.90;99.90
52034;DHT22;38045;52.988;6.536;2023-04-25T09:43:31;8.10;99.90
52034;DHT22;38045;52.988;6.536;2023-04-25T09:45:57;8.30;99.90
52034;DHT22;38045;52.988;6.536;2023-04-25T09:48:25;8.50;99.90
52034;DHT22;38045;52.988;6.536;2023-04-25T09:51:12;8.70;99.90
52034;DHT22;38045;52.988;6.536;2023-04-25T09:53:45;9.00;99.90
52034;DHT22;38045;52.988;6.536;2023-04-25T09:56:12;9.00;99.90
52034;DHT22;38045;52.988;6.536;2023-04-25T09:58:39;8.90;99.90
52034;DHT22;38045;52.988;6.536;2023-04-25T10:01:07;8.20;99.90
52034;DHT22;38045;52.988;6.536;2023-04-25T10:03:35;7.40;99.90
52034;DHT22;38045;52.988;6.536;2023-04-25T10:06:03;6.80;99.90
52034;DHT22;38045;52.988;6.536;2023-04-25T10:08:36;6.70;99.90
52034;DHT22;38045;52.988;6.536;2023-04-25T10:11:04;6.70;99.90
52034;DHT22;38045;52.988;6.536;2023-04-25T10:13:31;6.90;99.90
52034;DHT22;38045;52.988;6.536;2023-04-25T10:16:03;7.20;99.90
52034;DHT22;38045;52.988;6.536;2023-04-25T10:18:30;7.70;99.90
52034;DHT22;38045;52.988;6.536;2023-04-25T10:21:00;8.00;99.90
52034;DHT22;38045;52.988;6.536;2023-04-25T10:23:28;8.30;99.90
52034;DHT22;38045;52.988;6.536;2023-04-25T10:25:55;8.60;99.90
52034;DHT22;38045;52.988;6.536;2023-04-25T10:28:21;8.90;99.90
52034;DHT22;38045;52.988;6.536;2023-04-25T10:31:02;9.00;99.90
52034;DHT22;38045;52.988;6.536;2023-04-25T10:33:36;9.30;99.90
52034;DHT22;38045;52.988;6.536;2023-04-25T10:36:14;9.50;99.90
52034;DHT22;38045;52.988;6.536;2023-04-25T10:38:42;9.60;99.90
52034;DHT22;38045;52.988;6.536;2023-04-25T10:41:09;9.60;99.90
52034;DHT22;38045;52.988;6.536;2023-04-25T10:43:36;9.70;99.90
52034;DHT22;38045;52.988;6.536;2023-04-25T10:46:24;9.60;99.90
52034;DHT22;38045;52.988;6.536;2023-04-25T10:48:55;9.70;99.90
52034;DHT22;38045;52.988;6.536;2023-04-25T10:56:23;9.10;99.90
52034;DHT22;38045;52.988;6.536;2023-04-25T10:58:50;8.80;99.90
52034;DHT22;38045;52.988;6.536;2023-04-25T11:01:21;8.30;99.90
52034;DHT22;38045;52.988;6.536;2023-04-25T11:03:46;8.10;99.90
52034;DHT22;38045;52.988;6.536;2023-04-25T11:09:24;8.00;99.90
52034;DHT22;38045;52.988;6.536;2023-04-25T11:11:57;8.30;99.90
52034;DHT22;38045;52.988;6.536;2023-04-25T11:14:24;8.90;99.90
52034;DHT22;38045;52.988;6.536;2023-04-25T11:16:57;9.30;99.90
52034;DHT22;38045;52.988;6.536;2023-04-25T11:19:24;9.20;99.90
52034;DHT22;38045;52.988;6.536;2023-04-25T11:21:50;8.80;99.90
52034;DHT22;38045;52.988;6.536;2023-04-25T11:24:19;8.50;99.90
52034;DHT22;38045;52.988;6.536;2023-04-25T11:26:50;8.30;99.90
52034;DHT22;38045;52.988;6.536;2023-04-25T11:29:16;8.10;99.90
52034;DHT22;38045;52.988;6.536;2023-04-25T11:31:44;7.90;99.90
52034;DHT22;38045;52.988;6.536;2023-04-25T11:34:20;7.90;99.90
52034;DHT22;38045;52.988;6.536;2023-04-25T11:36:46;7.90;99.90
52034;DHT22;38045;52.988;6.536;2023-04-25T11:39:12;8.10;99.90
52034;DHT22;38045;52.988;6.536;2023-04-25T11:41:38;8.40;99.90
52034;DHT22;38045;52.988;6.536;2023-04-25T11:44:04;8.90;99.90
52034;DHT22;38045;52.988;6.536;2023-04-25T11:46:30;9.40;99.90
52034;DHT22;38045;52.988;6.536;2023-04-25T11:48:56;9.80;99.90
52034;DHT22;38045;52.988;6.536;2023-04-25T11:51:22;10.10;99.90
52034;DHT22;38045;52.988;6.536;2023-04-25T11:53:48;10.20;99.90
52034;DHT22;38045;52.988;6.536;2023-04-25T11:56:13;10.20;99.90
52034;DHT22;38045;52.988;6.536;2023-04-25T11:59:15;10.20;99.90
52034;DHT22;38045;52.988;6.536;2023-04-25T12:01:48;9.90;99.90
52034;DHT22;38045;52.988;6.536;2023-04-25T12:04:17;9.50;99.90
52034;DHT22;38045;52.988;6.536;2023-04-25T12:06:44;9.30;99.90
52034;DHT22;38045;52.988;6.536;2023-04-25T12:09:12;9.00;99.90
52034;DHT22;38045;52.988;6.536;2023-04-25T12:11:45;8.70;99.90
52034;DHT22;38045;52.988;6.536;2023-04-25T12:14:29;8.70;99.90
52034;DHT22;38045;52.988;6.536;2023-04-25T12:16:56;9.20;99.90
52034;DHT22;38045;52.988;6.536;2023-04-25T12:19:23;9.80;99.90
52034;DHT22;38045;52.988;6.536;2023-04-25T12:21:50;10.10;99.90
52034;DHT22;38045;52.988;6.536;2023-04-25T12:24:22;10.10;99.90
52034;DHT22;38045;52.988;6.536;2023-04-25T12:27:00;9.80;99.90
52034;DHT22;38045;52.988;6.536;2023-04-25T12:29:28;9.50;99.90
52034;DHT22;38045;52.988;6.536;2023-04-25T12:31:55;9.20;99.90
52034;DHT22;38045;52.988;6.536;2023-04-25T12:34:21;8.90;99.90
52034;DHT22;38045;52.988;6.536;2023-04-25T12:36:48;8.80;99.90
52034;DHT22;38045;52.988;6.536;2023-04-25T12:39:24;8.80;99.90
52034;DHT22;38045;52.988;6.536;2023-04-25T12:41:51;8.90;99.90
52034;DHT22;38045;52.988;6.536;2023-04-25T12:44:20;9.00;99.90
52034;DHT22;38045;52.988;6.536;2023-04-25T12:46:46;9.10;99.90
52034;DHT22;38045;52.988;6.536;2023-04-25T12:49:12;9.20;99.90
52034;DHT22;38045;52.988;6.536;2023-04-25T12:51:38;9.30;99.90
52034;DHT22;38045;52.988;6.536;2023-04-25T12:54:05;9.30;99.90
52034;DHT22;38045;52.988;6.536;2023-04-25T12:56:34;9.40;99.90
52034;DHT22;38045;52.988;6.536;2023-04-25T12:59:00;9.50;99.90
52034;DHT22;38045;52.988;6.536;2023-04-25T13:01:28;9.50;99.90
52034;DHT22;38045;52.988;6.536;2023-04-25T13:03:54;9.80;99.90
52034;DHT22;38045;52.988;6.536;2023-04-25T13:06:21;9.90;99.90
52034;DHT22;38045;52.988;6.536;2023-04-25T13:08:47;9.80;99.90
52034;DHT22;38045;52.988;6.536;2023-04-25T13:11:13;9.90;99.90
52034;DHT22;38045;52.988;6.536;2023-04-25T13:13:42;10.20;99.90
52034;DHT22;38045;52.988;6.536;2023-04-25T13:16:08;10.40;99.90
52034;DHT22;38045;52.988;6.536;2023-04-25T13:18:34;10.50;99.90
52034;DHT22;38045;52.988;6.536;2023-04-25T13:21:00;10.60;99.90
52034;DHT22;38045;52.988;6.536;2023-04-25T13:23:27;10.60;99.90
52034;DHT22;38045;52.988;6.536;2023-04-25T13:25:54;10.10;99.90
52034;DHT22;38045;52.988;6.536;2023-04-25T13:28:20;9.60;99.90
52034;DHT22;38045;52.988;6.536;2023-04-25T13:30:46;9.10;99.90
52034;DHT22;38045;52.988;6.536;2023-04-25T13:33:15;8.60;99.90
52034;DHT22;38045;52.988;6.536;2023-04-25T13:35:40;8.40;99.90
52034;DHT22;38045;52.988;6.536;2023-04-25T13:38:07;8.30;99.90
52034;DHT22;38045;52.988;6.536;2023-04-25T13:40:32;8.50;99.90
52034;DHT22;38045;52.988;6.536;2023-04-25T13:42:58;9.00;99.90
52034;DHT22;38045;52.988;6.536;2023-04-25T13:45:24;9.50;99.90
52034;DHT22;38045;52.988;6.536;2023-04-25T13:47:50;9.50;99.90
52034;DHT22;38045;52.988;6.536;2023-04-25T13:50:16;9.30;99.90
52034;DHT22;38045;52.988;6.536;2023-04-25T13:52:42;9.20;99.90
52034;DHT22;38045;52.988;6.536;2023-04-25T13:55:09;9.20;99.90
52034;DHT22;38045;52.988;6.536;2023-04-25T13:57:35;9.20;99.90
52034;DHT22;38045;52.988;6.536;2023-04-25T14:00:03;9.00;99.90
52034;DHT22;38045;52.988;6.536;2023-04-25T14:02:34;8.50;99.90
52034;DHT22;38045;52.988;6.536;2023-04-25T14:05:00;8.10;99.90
52034;DHT22;38045;52.988;6.536;2023-04-25T14:07:26;7.90;99.90
52034;DHT22;38045;52.988;6.536;2023-04-25T14:09:52;7.90;99.90
52034;DHT22;38045;52.988;6.536;2023-04-25T14:12:17;8.00;99.90
52034;DHT22;38045;52.988;6.536;2023-04-25T14:14:43;8.30;99.90
52034;DHT22;38045;52.988;6.536;2023-04-25T14:17:09;8.40;99.90
52034;DHT22;38045;52.988;6.536;2023-04-25T14:19:34;8.40;99.90
52034;DHT22;38045;52.988;6.536;2023-04-25T14:22:00;8.60;99.90
52034;DHT22;38045;52.988;6.536;2023-04-25T14:24:25;8.80;99.90
52034;DHT22;38045;52.988;6.536;2023-04-25T14:26:51;9.00;99.90
52034;DHT22;38045;52.988;6.536;2023-04-25T14:29:17;9.10;99.90
52034;DHT22;38045;52.988;6.536;2023-04-25T14:31:42;9.40;99.90
52034;DHT22;38045;52.988;6.536;2023-04-25T14:34:08;9.60;99.90
52034;DHT22;38045;52.988;6.536;2023-04-25T14:36:35;9.80;99.90
52034;DHT22;38045;52.988;6.536;2023-04-25T14:39:01;9.80;99.90
52034;DHT22;38045;52.988;6.536;2023-04-25T14:41:27;9.90;99.90
52034;DHT22;38045;52.988;6.536;2023-04-25T14:43:52;10.10;99.90
52034;DHT22;38045;52.988;6.536;2023-04-25T14:46:19;10.00;99.90
52034;DHT22;38045;52.988;6.536;2023-04-25T14:48:45;9.90;99.90
52034;DHT22;38045;52.988;6.536;2023-04-25T14:51:12;9.70;99.90
52034;DHT22;38045;52.988;6.536;2023-04-25T14:53:39;9.70;99.90
52034;DHT22;38045;52.988;6.536;2023-04-25T14:56:05;9.70;99.90
52034;DHT22;38045;52.988;6.536;2023-04-25T14:58:31;9.60;99.90
52034;DHT22;38045;52.988;6.536;2023-04-25T15:00:57;9.70;99.90
52034;DHT22;38045;52.988;6.536;2023-04-25T15:03:22;9.80;99.90
52034;DHT22;38045;52.988;6.536;2023-04-25T15:05:48;9.90;99.90
52034;DHT22;38045;52.988;6.536;2023-04-25T15:08:13;10.10;99.90
52034;DHT22;38045;52.988;6.536;2023-04-25T15:10:39;10.20;99.30
52034;DHT22;38045;52.988;6.536;2023-04-25T15:13:05;10.20;99.90
52034;DHT22;38045;52.988;6.536;2023-04-25T15:15:30;10.30;98.20
52034;DHT22;38045;52.988;6.536;2023-04-25T15:17:57;10.20;99.90
52034;DHT22;38045;52.988;6.536;2023-04-25T15:20:24;10.20;99.90
52034;DHT22;38045;52.988;6.536;2023-04-25T15:22:50;10.20;99.30
52034;DHT22;38045;52.988;6.536;2023-04-25T15:25:16;10.20;99.90
52034;DHT22;38045;52.988;6.536;2023-04-25T15:27:45;10.20;99.90
52034;DHT22;38045;52.988;6.536;2023-04-25T15:30:15;9.80;99.90
52034;DHT22;38045;52.988;6.536;2023-04-25T15:32:42;9.30;99.90
52034;DHT22;38045;52.988;6.536;2023-04-25T15:35:08;8.90;99.90
52034;DHT22;38045;52.988;6.536;2023-04-25T15:37:35;8.60;99.90
52034;DHT22;38045;52.988;6.536;2023-04-25T15:40:08;8.60;99.90
52034;DHT22;38045;52.988;6.536;2023-04-25T15:42:35;8.60;99.90
52034;DHT22;38045;52.988;6.536;2023-04-25T15:45:04;8.60;99.90
52034;DHT22;38045;52.988;6.536;2023-04-25T15:47:29;8.80;99.90
52034;DHT22;38045;52.988;6.536;2023-04-25T15:49:55;9.10;99.90